Lahr, Germany

8:42 AM CEST on September 03, 2014 (GMT +0200)
Lahr | Change Station
CLOSE
Current Station
Personal Weather Station
Location: Friesenheim, BADEN
Elevation: 501 ft
Nearby Weather Stations

Elev 501 ft 48.37 °N, 7.89 °E | Updated 1 minute ago

Mostly Cloudy
Mostly Cloudy
57.6 °F
Feels Like 57.6 °F
N
0.4
Wind Variable Wind from North
Gusts 3.0 mph

Today
High -- | Low -- °F
--% Chance of Precip.
Yesterday
High -- | Low -- °F
Precip. -- in
6:48 AM 8:06 PM
First Quarter, 59% visible
Pressure 30.09 in
Visibility 6.2 miles
Clouds Mostly Cloudy 900 ft
Mostly Cloudy 3300 ft
Dew Point 56 °F
Humidity 94%
Rainfall 0.00 in
Snow Depth Not available.
UV 0 out of 12
Pollen Not available.
Air Quality Not available.
Flu Activity Not available.
METAR LFST 030630Z AUTO 03010KT 360V060 9999 BKN009 BKN033 16/14 Q1019

More Conditions Fewer Conditions

Pressure 30.09 in
Visibility 6.2 miles
Clouds Mostly Cloudy 900 ft
Mostly Cloudy 3300 ft
Dew Point 56 °F
Humidity 94%
Rainfall 0.00 in
Snow Depth Not available.
UV 0 out of 12
Pollen Not available.
Air Quality Not available.
Flu Activity Not available.
METAR LFST 030630Z AUTO 03010KT 360V060 9999 BKN009 BKN033 16/14 Q1019

More Conditions Fewer Conditions

10-Day Weather Forecast

Almanac

Astronomy

Sep. 03, 2014 Rise Set
Actual Time 6:48 AM CEST 8:06 PM CEST
Civil Twilight 6:16 AM CEST 8:38 PM CEST
Nautical Twilight 5:37 AM CEST 9:17 PM CEST
Astronomical Twilight 4:55 AM CEST 9:59 PM CEST
Moon 3:48 PM CEST 12:13 AM CEST
Length of Visible Light 14h 22m
Length of Day
13h 18m
Tomorrow will be 3m 25s shorter.
First Quarter, 59% of the Moon is Illuminated
Today
First Quarter
Sep 8
Full
Sep 15
Last Quarter
Sep 24
New
Oct 1
First Quarter

Yesterday's Extremes

Country Highs Country Lows

Community

WunderPhotos

Upload Photos

1,749,888 photos uploaded!

Nearby

Snow Depth

Not available.

Earthquake Activity

City Distance Mag. Time & Date
No recent earthquake activity has been reported nearby.
Minimum magnitude displayed is 2.5.

Coastal Water Temperatures

Place Temperature
No Stations Reporting

Nearby Weather Stations